Terminal Aerodrome Forecast
Issued by NWS

Home | Current Version | Previous Version | Text Only | Print | Product List | Glossary On
Versions: 1 2 3 4 5 6 7 8 9 10 11 12 13 14 15 16 17 18 19 20 21 22 23 24 25 26 27 28 29 30 31 32 33 34 35 36 37 38 39 40 41 42 43 44 45 46 47 48
000
FTUS43 KDMX 010332 AAB
TAFOTM
TAF AMD
KOTM 010332Z 0104/0124 20010KT P6SM -RA BKN005 OVC050
     FM010700 17006KT 2SM BR SCT004 OVC011
     FM011100 20009KT 4SM BR VCSH OVC009
     FM011500 24014G22KT 3SM BR OVC010
     FM011800 27019G29KT P6SM OVC014=

USA.gov is the U.S. government's official web portal to all federal, state and local government web resources and services.